createdAt,value
2023-08-23T00:01:42.359Z,100.00
2023-08-23T00:04:14.331Z,100.00
2023-08-23T00:06:43.318Z,100.00
2023-08-23T00:09:14.063Z,100.00
2023-08-23T00:11:43.073Z,100.00
2023-08-23T00:14:12.139Z,100.00
2023-08-23T00:16:41.992Z,100.00
2023-08-23T00:19:13.482Z,100.00
2023-08-23T00:21:42.752Z,100.00
2023-08-23T00:24:15.558Z,100.00
2023-08-23T00:26:50.094Z,100.00
2023-08-23T00:29:19.182Z,100.00
2023-08-23T00:31:48.299Z,100.00
2023-08-23T00:34:17.576Z,100.00
2023-08-23T00:36:47.950Z,100.00
2023-08-23T00:39:18.469Z,100.00
2023-08-23T00:41:48.026Z,100.00
2023-08-23T00:44:17.153Z,100.00
2023-08-23T00:46:46.545Z,100.00
2023-08-23T00:49:15.934Z,100.00
2023-08-23T00:51:45.332Z,100.00
2023-08-23T00:54:14.853Z,100.00
2023-08-23T00:56:45.458Z,100.00
2023-08-23T00:59:14.737Z,100.00
2023-08-23T01:01:43.894Z,100.00
2023-08-23T01:04:13.082Z,100.00
2023-08-23T01:06:54.379Z,100.00
2023-08-23T01:09:33.686Z,100.00
2023-08-23T01:12:11.477Z,100.00
2023-08-23T01:14:47.996Z,100.00
2023-08-23T01:17:21.277Z,100.00
2023-08-23T01:19:51.688Z,100.00
2023-08-23T01:22:25.900Z,100.00
2023-08-23T01:24:56.600Z,100.00
2023-08-23T01:27:25.623Z,100.00
2023-08-23T01:29:57.295Z,100.00
2023-08-23T01:32:37.644Z,100.00
2023-08-23T01:35:12.170Z,100.00
2023-08-23T01:37:45.992Z,100.00
2023-08-23T01:40:17.698Z,100.00
2023-08-23T01:42:48.735Z,100.00
2023-08-23T01:45:18.288Z,100.00
2023-08-23T01:47:47.514Z,100.00
2023-08-23T01:50:16.830Z,100.00
2023-08-23T01:52:46.050Z,100.00
2023-08-23T01:55:18.847Z,100.00
2023-08-23T01:57:48.090Z,100.00
2023-08-23T02:00:21.040Z,100.00
2023-08-23T02:02:50.027Z,100.00
2023-08-23T02:05:19.358Z,100.00
2023-08-23T02:07:49.635Z,100.00
2023-08-23T02:10:23.863Z,100.00
2023-08-23T02:12:52.969Z,100.00
2023-08-23T02:15:21.938Z,100.00
2023-08-23T02:17:52.556Z,100.00
2023-08-23T02:20:21.593Z,100.00
2023-08-23T02:22:52.785Z,100.00
2023-08-23T02:25:25.522Z,100.00
2023-08-23T02:27:54.716Z,100.00
2023-08-23T02:30:23.729Z,100.00
2023-08-23T02:32:55.265Z,100.00
2023-08-23T02:35:24.544Z,100.00
2023-08-23T02:37:54.851Z,100.00
2023-08-23T02:40:26.392Z,100.00
2023-08-23T02:42:57.182Z,100.00
2023-08-23T02:45:27.665Z,100.00
2023-08-23T02:47:56.614Z,100.00
2023-08-23T02:50:26.304Z,100.00
2023-08-23T02:52:55.715Z,100.00
2023-08-23T02:55:26.671Z,100.00
2023-08-23T02:57:55.646Z,100.00
2023-08-23T03:00:25.083Z,100.00
2023-08-23T03:02:56.684Z,100.00
2023-08-23T03:05:26.230Z,100.00
2023-08-23T03:07:55.421Z,100.00
2023-08-23T03:10:26.018Z,100.00
2023-08-23T03:12:55.323Z,100.00
2023-08-23T03:15:24.379Z,100.00
2023-08-23T03:17:53.614Z,100.00
2023-08-23T03:20:23.655Z,100.00
2023-08-23T03:22:52.503Z,100.00
2023-08-23T03:25:21.798Z,100.00
2023-08-23T03:27:53.893Z,100.00
2023-08-23T03:30:23.694Z,100.00
2023-08-23T03:32:55.966Z,100.00
2023-08-23T03:35:29.837Z,100.00
2023-08-23T03:38:02.230Z,100.00
2023-08-23T03:40:37.349Z,100.00
2023-08-23T03:43:08.101Z,100.00
2023-08-23T03:45:39.711Z,100.00
2023-08-23T03:48:09.020Z,100.00
2023-08-23T03:50:39.351Z,100.00
2023-08-23T03:53:09.684Z,100.00
2023-08-23T03:55:39.927Z,100.00
2023-08-23T03:58:10.652Z,100.00
2023-08-23T04:00:40.679Z,100.00
2023-08-23T04:03:10.529Z,100.00
2023-08-23T04:05:42.594Z,100.00
2023-08-23T04:08:13.682Z,100.00
2023-08-23T04:10:48.814Z,100.00
2023-08-23T04:13:20.487Z,100.00
2023-08-23T04:15:50.833Z,100.00
2023-08-23T04:18:20.004Z,100.00
2023-08-23T04:20:49.347Z,100.00
2023-08-23T04:23:18.841Z,100.00
2023-08-23T04:25:47.811Z,100.00
2023-08-23T04:28:17.218Z,100.00
2023-08-23T04:30:49.484Z,100.00
2023-08-23T04:38:22.674Z,100.00
2023-08-23T04:41:01.285Z,100.00
2023-08-23T04:43:35.391Z,100.00
2023-08-23T04:46:10.423Z,100.00
2023-08-23T04:48:40.909Z,100.00
2023-08-23T04:51:11.065Z,100.00
2023-08-23T04:53:40.233Z,100.00
2023-08-23T04:56:10.386Z,100.00
2023-08-23T04:58:39.874Z,100.00
2023-08-23T05:01:12.803Z,100.00
2023-08-23T05:03:44.785Z,100.00
2023-08-23T05:06:13.674Z,100.00
2023-08-23T05:08:42.704Z,100.00
2023-08-23T05:11:16.099Z,100.00
2023-08-23T05:13:45.106Z,100.00
2023-08-23T05:16:15.298Z,100.00
2023-08-23T05:18:44.202Z,100.00
2023-08-23T05:21:13.090Z,100.00
2023-08-23T05:23:42.137Z,100.00
2023-08-23T05:26:11.737Z,100.00
2023-08-23T05:28:40.565Z,100.00
2023-08-23T05:31:09.454Z,100.00
2023-08-23T05:33:40.404Z,100.00
2023-08-23T05:36:09.206Z,100.00
2023-08-23T05:38:40.147Z,100.00
2023-08-23T05:41:09.206Z,100.00
2023-08-23T05:43:37.988Z,100.00
2023-08-23T05:46:07.022Z,100.00
2023-08-23T05:48:37.187Z,100.00
2023-08-23T05:51:07.419Z,100.00
2023-08-23T05:53:36.798Z,100.00
2023-08-23T05:56:08.568Z,100.00
2023-08-23T05:58:37.723Z,100.00
2023-08-23T06:01:07.218Z,100.00
2023-08-23T06:03:36.401Z,100.00
2023-08-23T06:06:05.882Z,100.00
2023-08-23T06:08:36.792Z,100.00
2023-08-23T06:11:06.273Z,100.00
2023-08-23T06:13:38.452Z,100.00
2023-08-23T06:16:07.754Z,100.00
2023-08-23T06:18:36.749Z,100.00
2023-08-23T06:21:05.768Z,100.00
2023-08-23T06:23:38.114Z,100.00
2023-08-23T06:26:07.586Z,100.00
2023-08-23T06:28:36.939Z,100.00
2023-08-23T06:31:06.155Z,100.00
2023-08-23T06:33:35.754Z,100.00
2023-08-23T06:36:09.769Z,100.00
2023-08-23T06:38:42.958Z,100.00
2023-08-23T06:41:12.032Z,100.00
2023-08-23T06:43:42.284Z,100.00
2023-08-23T06:46:11.472Z,100.00
2023-08-23T06:48:41.860Z,100.00
2023-08-23T06:51:11.971Z,100.00
2023-08-23T06:53:42.765Z,100.00
2023-08-23T06:56:14.623Z,100.00
2023-08-23T06:58:44.683Z,100.00
2023-08-23T07:01:17.413Z,100.00
2023-08-23T07:03:47.534Z,100.00
2023-08-23T07:06:20.431Z,100.00
2023-08-23T07:08:53.261Z,100.00
2023-08-23T07:11:22.368Z,100.00
2023-08-23T07:13:51.813Z,100.00
2023-08-23T07:16:21.176Z,100.00
2023-08-23T07:18:50.513Z,100.00
2023-08-23T07:21:19.987Z,100.00
2023-08-23T07:23:49.276Z,100.00
2023-08-23T07:26:20.432Z,100.00
2023-08-23T07:28:49.613Z,100.00
2023-08-23T07:31:21.309Z,100.00
2023-08-23T07:33:50.498Z,100.00
2023-08-23T07:36:19.713Z,100.00
2023-08-23T07:38:49.254Z,100.00
2023-08-23T07:41:18.478Z,100.00
2023-08-23T07:43:50.622Z,100.00
2023-08-23T07:46:19.769Z,100.00
2023-08-23T07:48:48.981Z,100.00
2023-08-23T07:51:18.119Z,100.00
2023-08-23T07:53:48.410Z,100.00
2023-08-23T07:56:18.967Z,100.00
2023-08-23T07:58:49.677Z,100.00
2023-08-23T08:01:19.146Z,100.00
2023-08-23T08:03:49.153Z,100.00
2023-08-23T08:06:20.809Z,100.00
2023-08-23T08:08:50.093Z,100.00
2023-08-23T08:11:19.331Z,100.00
2023-08-23T08:13:53.151Z,100.00
2023-08-23T08:16:22.775Z,100.00
2023-08-23T08:18:52.032Z,100.00
2023-08-23T08:21:21.577Z,100.00
2023-08-23T08:23:51.390Z,100.00
2023-08-23T08:26:23.625Z,100.00
2023-08-23T08:28:55.735Z,100.00
2023-08-23T08:31:24.874Z,100.00
2023-08-23T08:33:54.355Z,100.00
2023-08-23T08:36:24.304Z,100.00
2023-08-23T08:38:53.593Z,100.00
2023-08-23T08:41:23.931Z,100.00
2023-08-23T08:43:55.463Z,100.00
2023-08-23T08:46:24.913Z,100.00
2023-08-23T08:48:54.274Z,100.00
2023-08-23T08:51:24.788Z,100.00
2023-08-23T08:53:56.147Z,100.00
2023-08-23T08:56:27.034Z,100.00
2023-08-23T08:58:58.368Z,100.00
2023-08-23T09:01:32.407Z,100.00
2023-08-23T09:04:02.672Z,100.00
2023-08-23T09:06:34.481Z,100.00
2023-08-23T09:09:04.600Z,100.00
2023-08-23T09:11:34.238Z,100.00
2023-08-23T09:14:16.294Z,100.00
2023-08-23T09:16:46.941Z,100.00
2023-08-23T09:19:17.416Z,100.00
2023-08-23T09:21:48.724Z,100.00
2023-08-23T09:24:19.688Z,100.00
2023-08-23T09:26:49.085Z,100.00
2023-08-23T09:29:20.038Z,100.00
2023-08-23T09:31:52.312Z,100.00
2023-08-23T09:34:21.516Z,100.00
2023-08-23T09:36:50.722Z,100.00
2023-08-23T09:39:20.695Z,100.00
2023-08-23T09:42:01.108Z,100.00
2023-08-23T09:44:32.763Z,100.00
2023-08-23T09:47:02.562Z,100.00
2023-08-23T09:49:35.963Z,97.35
2023-08-23T09:52:05.625Z,98.20
2023-08-23T09:54:48.381Z,97.17
2023-08-23T09:57:29.466Z,93.78
2023-08-23T10:00:02.159Z,96.13
2023-08-23T10:02:36.111Z,96.72
2023-08-23T10:05:08.200Z,90.79
2023-08-23T10:07:38.065Z,91.72
2023-08-23T10:10:08.959Z,92.54
2023-08-23T10:12:41.791Z,92.28
2023-08-23T10:15:14.618Z,88.00
2023-08-23T10:17:49.158Z,84.41
2023-08-23T10:20:18.769Z,84.70
2023-08-23T10:22:49.304Z,85.05
2023-08-23T10:25:19.809Z,84.41
2023-08-23T10:27:51.118Z,81.16
2023-08-23T10:30:26.803Z,77.21
2023-08-23T10:33:09.508Z,74.92
2023-08-23T10:35:38.992Z,76.72
2023-08-23T10:38:09.634Z,78.51
2023-08-23T10:40:40.300Z,77.38
2023-08-23T10:43:14.434Z,77.41
2023-08-23T10:46:04.016Z,69.47
2023-08-23T10:48:34.237Z,68.51
2023-08-23T10:51:03.822Z,68.77
2023-08-23T10:53:33.129Z,73.14
2023-08-23T10:56:02.862Z,77.83
2023-08-23T10:58:34.493Z,77.24
2023-08-23T11:01:05.732Z,75.05
2023-08-23T11:03:35.845Z,71.79
2023-08-23T11:06:05.320Z,69.49
2023-08-23T11:08:34.842Z,66.82
2023-08-23T11:11:04.920Z,68.86
2023-08-23T11:13:34.285Z,64.17
2023-08-23T11:16:05.409Z,69.40
2023-08-23T11:18:35.059Z,68.64
2023-08-23T11:21:05.225Z,71.27
2023-08-23T11:23:38.457Z,72.09
2023-08-23T11:26:08.794Z,73.41
2023-08-23T11:28:38.299Z,68.17
2023-08-23T11:31:10.624Z,64.23
2023-08-23T11:33:40.980Z,68.92
2023-08-23T11:36:11.011Z,63.46
2023-08-23T11:38:42.257Z,65.01
2023-08-23T11:41:11.457Z,61.86
2023-08-23T11:43:46.805Z,58.71
2023-08-23T11:46:19.643Z,61.90
2023-08-23T11:48:49.160Z,59.83
2023-08-23T11:51:18.308Z,63.01
2023-08-23T11:53:56.529Z,63.06
2023-08-23T11:56:29.689Z,62.79
2023-08-23T11:59:04.369Z,57.27
2023-08-23T12:01:36.404Z,57.36
2023-08-23T12:04:06.296Z,54.48
2023-08-23T12:06:35.777Z,54.75
2023-08-23T12:09:05.788Z,54.57
2023-08-23T12:11:35.094Z,56.24
2023-08-23T12:14:07.691Z,58.57
2023-08-23T12:16:38.809Z,51.75
2023-08-23T12:19:29.666Z,55.05
2023-08-23T12:21:59.712Z,54.89
2023-08-23T12:24:29.737Z,51.21
2023-08-23T12:27:00.410Z,52.96
2023-08-23T12:29:29.525Z,56.21
2023-08-23T12:31:59.865Z,53.50
2023-08-23T12:34:30.327Z,55.22
2023-08-23T12:36:59.985Z,53.65
2023-08-23T12:39:29.201Z,53.99
2023-08-23T12:41:59.189Z,53.56
2023-08-23T12:44:29.566Z,52.55
2023-08-23T12:47:02.804Z,52.69
2023-08-23T12:49:33.380Z,56.08
2023-08-23T12:52:02.657Z,54.26
2023-08-23T12:54:32.134Z,54.15
2023-08-23T12:57:01.398Z,51.34
2023-08-23T12:59:32.980Z,54.91
2023-08-23T13:02:03.439Z,55.08
2023-08-23T13:04:32.528Z,55.07
2023-08-23T13:07:02.095Z,54.00
2023-08-23T13:09:31.591Z,55.34
2023-08-23T13:12:01.670Z,54.38
2023-08-23T13:14:30.960Z,56.86
2023-08-23T13:17:00.586Z,57.32
2023-08-23T13:19:32.302Z,52.34
2023-08-23T13:22:01.523Z,54.25
2023-08-23T13:24:30.852Z,52.82
2023-08-23T13:27:00.699Z,55.23
2023-08-23T13:29:30.019Z,52.53
2023-08-23T13:32:02.214Z,51.27
2023-08-23T13:34:36.594Z,54.68
2023-08-23T13:37:06.636Z,56.82
2023-08-23T13:39:36.435Z,58.36
2023-08-23T13:42:06.730Z,57.27
2023-08-23T13:44:36.236Z,57.40
2023-08-23T13:47:04.994Z,57.36
2023-08-23T13:49:34.044Z,59.18
2023-08-23T13:52:04.876Z,56.14
2023-08-23T13:54:34.466Z,55.28
2023-08-23T13:57:04.295Z,53.44
2023-08-23T13:59:34.398Z,53.63
2023-08-23T14:02:04.216Z,58.33
2023-08-23T14:04:37.915Z,59.40
2023-08-23T14:07:08.837Z,59.00
2023-08-23T14:09:38.215Z,57.61
2023-08-23T14:12:08.120Z,56.10
2023-08-23T14:14:37.222Z,57.07
2023-08-23T14:17:06.410Z,56.70
2023-08-23T14:19:46.225Z,58.24
2023-08-23T14:22:16.981Z,59.99
2023-08-23T14:24:48.727Z,60.97
2023-08-23T14:27:18.255Z,61.22
2023-08-23T14:29:47.580Z,63.42
2023-08-23T14:32:19.305Z,63.94
2023-08-23T14:34:48.650Z,63.25
2023-08-23T14:37:19.353Z,64.40
2023-08-23T14:39:49.143Z,64.83
2023-08-23T14:42:18.331Z,63.95
2023-08-23T14:44:47.755Z,65.83
2023-08-23T14:47:35.142Z,65.84
2023-08-23T14:50:05.558Z,64.16
2023-08-23T14:52:37.124Z,65.38
2023-08-23T14:55:07.977Z,65.99
2023-08-23T14:57:38.092Z,67.68
2023-08-23T15:00:10.906Z,65.04
2023-08-23T15:02:43.818Z,64.47
2023-08-23T15:05:12.938Z,65.23
2023-08-23T15:07:43.650Z,65.06
2023-08-23T15:10:13.281Z,65.24
2023-08-23T15:12:42.754Z,67.19
2023-08-23T15:15:12.354Z,68.74
2023-08-23T15:17:41.985Z,68.06
2023-08-23T15:20:12.531Z,68.98
2023-08-23T15:22:43.929Z,68.30
2023-08-23T15:25:13.418Z,68.61
2023-08-23T15:27:47.777Z,66.69
2023-08-23T15:30:20.237Z,68.98
2023-08-23T15:32:52.103Z,69.31
2023-08-23T15:35:21.534Z,69.11
2023-08-23T15:37:54.622Z,69.72
2023-08-23T15:40:24.048Z,67.27
2023-08-23T15:42:53.656Z,67.97
2023-08-23T15:45:23.312Z,67.35
2023-08-23T15:47:55.425Z,69.05
2023-08-23T15:50:26.704Z,70.77
2023-08-23T15:52:57.286Z,69.19
2023-08-23T15:55:27.794Z,70.17
2023-08-23T15:57:57.412Z,67.47
2023-08-23T16:00:27.047Z,68.63
2023-08-23T16:02:56.404Z,73.64
2023-08-23T16:05:25.753Z,70.25
2023-08-23T16:07:56.456Z,70.33
2023-08-23T16:10:26.813Z,69.62
2023-08-23T16:12:56.659Z,69.42
2023-08-23T16:15:34.225Z,69.54
2023-08-23T16:18:04.468Z,71.05
2023-08-23T16:20:34.043Z,71.02
2023-08-23T16:23:04.656Z,70.67
2023-08-23T16:25:34.289Z,71.06
2023-08-23T16:28:03.952Z,70.73
2023-08-23T16:30:35.775Z,70.02
2023-08-23T16:33:06.264Z,68.39
2023-08-23T16:35:40.380Z,67.54
2023-08-23T16:38:13.051Z,68.60
2023-08-23T16:40:45.007Z,69.29
2023-08-23T16:43:19.497Z,70.04
2023-08-23T16:45:48.795Z,71.18
2023-08-23T16:48:21.540Z,74.29
2023-08-23T16:50:50.817Z,76.88
2023-08-23T16:53:21.397Z,76.64
2023-08-23T16:55:51.288Z,75.98
2023-08-23T16:58:22.738Z,75.14
2023-08-23T17:00:52.431Z,71.87
2023-08-23T17:03:22.062Z,74.00
2023-08-23T17:05:52.321Z,74.39
2023-08-23T17:08:23.529Z,74.92
2023-08-23T17:10:52.918Z,72.21
2023-08-23T17:13:22.145Z,74.84
2023-08-23T17:15:51.743Z,76.37
2023-08-23T17:18:21.319Z,75.88
2023-08-23T17:20:50.955Z,78.27
2023-08-23T17:23:24.295Z,79.29
2023-08-23T17:25:53.638Z,79.68
2023-08-23T17:28:22.864Z,79.30
2023-08-23T17:30:52.627Z,78.81
2023-08-23T17:33:24.894Z,78.10
2023-08-23T17:35:54.310Z,80.96
2023-08-23T17:38:28.216Z,82.81
2023-08-23T17:40:57.944Z,83.83
2023-08-23T17:43:27.927Z,83.12
2023-08-23T17:45:57.452Z,83.13
2023-08-23T17:48:27.189Z,83.43
2023-08-23T17:50:57.986Z,84.35
2023-08-23T17:53:30.819Z,84.48
2023-08-23T17:56:02.886Z,84.32
2023-08-23T17:58:32.765Z,84.18
2023-08-23T18:01:02.207Z,82.25
2023-08-23T18:03:32.159Z,82.25
2023-08-23T18:06:01.869Z,83.16
2023-08-23T18:08:32.790Z,84.11
2023-08-23T18:11:01.984Z,84.91
2023-08-23T18:13:32.205Z,85.51
2023-08-23T18:16:02.555Z,85.68
2023-08-23T18:18:32.153Z,84.61
2023-08-23T18:21:01.485Z,85.04
2023-08-23T18:23:34.319Z,86.10
2023-08-23T18:26:03.752Z,85.00
2023-08-23T18:28:33.546Z,85.40
2023-08-23T18:31:04.279Z,86.39
2023-08-23T18:33:36.530Z,87.22
2023-08-23T18:36:06.661Z,87.53
2023-08-23T18:38:39.143Z,88.21
2023-08-23T18:41:12.130Z,88.69
2023-08-23T18:43:43.618Z,88.87
2023-08-23T18:46:17.186Z,91.73
2023-08-23T18:48:47.063Z,91.66
2023-08-23T18:51:17.509Z,91.44
2023-08-23T18:53:49.017Z,91.60
2023-08-23T18:56:18.362Z,91.69
2023-08-23T18:58:51.070Z,91.58
2023-08-23T19:01:20.897Z,93.37
2023-08-23T19:03:51.757Z,93.92
2023-08-23T19:06:21.927Z,93.87
2023-08-23T19:08:53.059Z,94.52
2023-08-23T19:11:33.505Z,95.28
2023-08-23T19:14:05.895Z,96.19
2023-08-23T19:16:35.893Z,96.49
2023-08-23T19:19:05.742Z,96.77
2023-08-23T19:21:38.476Z,96.20
2023-08-23T19:24:09.922Z,95.99
2023-08-23T19:26:40.041Z,95.79
2023-08-23T19:29:09.923Z,96.10
2023-08-23T19:31:40.318Z,96.33
2023-08-23T19:34:10.969Z,96.69
2023-08-23T19:36:41.344Z,97.06
2023-08-23T19:39:17.712Z,97.73
2023-08-23T19:41:48.196Z,98.32
2023-08-23T19:44:22.557Z,98.99
2023-08-23T19:46:52.457Z,99.49
2023-08-23T19:49:22.254Z,100.00
2023-08-23T19:51:52.329Z,100.00
2023-08-23T19:54:24.558Z,100.00
2023-08-23T19:56:54.003Z,100.00
2023-08-23T19:59:23.702Z,100.00
2023-08-23T20:01:54.116Z,100.00
2023-08-23T20:04:23.686Z,100.00
2023-08-23T20:06:53.369Z,100.00
2023-08-23T20:09:24.345Z,100.00
2023-08-23T20:11:54.513Z,100.00
2023-08-23T20:14:24.701Z,100.00
2023-08-23T20:16:54.334Z,100.00
2023-08-23T20:19:23.956Z,100.00
2023-08-23T20:21:54.078Z,100.00
2023-08-23T20:24:25.657Z,100.00
2023-08-23T20:26:55.150Z,100.00
2023-08-23T20:29:24.593Z,100.00
2023-08-23T20:31:54.514Z,100.00
2023-08-23T20:34:25.330Z,100.00
2023-08-23T20:36:55.058Z,100.00
2023-08-23T20:39:27.538Z,100.00
2023-08-23T20:41:57.130Z,100.00
2023-08-23T20:44:27.051Z,100.00
2023-08-23T20:46:56.024Z,100.00
2023-08-23T20:49:25.794Z,100.00
2023-08-23T20:51:55.497Z,100.00
2023-08-23T20:54:29.764Z,100.00
2023-08-23T20:56:59.605Z,100.00
2023-08-23T20:59:29.493Z,100.00
2023-08-23T21:01:59.110Z,100.00
2023-08-23T21:04:31.364Z,100.00
2023-08-23T21:07:01.235Z,100.00
2023-08-23T21:09:31.867Z,100.00
2023-08-23T21:12:01.790Z,100.00
2023-08-23T21:14:33.465Z,100.00
2023-08-23T21:17:02.899Z,100.00
2023-08-23T21:19:32.172Z,100.00
2023-08-23T21:22:02.103Z,100.00
2023-08-23T21:24:32.686Z,100.00
2023-08-23T21:27:02.099Z,100.00
2023-08-23T21:29:31.367Z,100.00
2023-08-23T21:32:00.600Z,100.00
2023-08-23T21:34:29.801Z,100.00
2023-08-23T21:36:59.034Z,100.00
2023-08-23T21:39:28.436Z,100.00
2023-08-23T21:41:59.216Z,100.00
2023-08-23T21:44:28.652Z,100.00
2023-08-23T21:46:58.257Z,100.00
2023-08-23T21:49:27.699Z,100.00
2023-08-23T21:51:57.308Z,100.00
2023-08-23T21:54:26.639Z,100.00
2023-08-23T21:56:55.973Z,100.00
2023-08-23T21:59:27.048Z,100.00
2023-08-23T22:01:56.123Z,100.00
2023-08-23T22:04:25.468Z,100.00
2023-08-23T22:06:54.631Z,100.00
2023-08-23T22:09:24.234Z,100.00
2023-08-23T22:11:55.970Z,100.00
2023-08-23T22:14:26.606Z,100.00
2023-08-23T22:16:56.162Z,100.00
2023-08-23T22:19:25.600Z,100.00
2023-08-23T22:21:54.866Z,100.00
2023-08-23T22:24:24.157Z,100.00
2023-08-23T22:26:53.608Z,100.00
2023-08-23T22:29:22.640Z,100.00
2023-08-23T22:31:53.130Z,100.00
2023-08-23T22:34:22.458Z,100.00
2023-08-23T22:36:51.353Z,100.00
2023-08-23T22:39:20.507Z,100.00
2023-08-23T22:41:50.160Z,100.00
2023-08-23T22:44:19.523Z,100.00
2023-08-23T22:46:52.570Z,100.00
2023-08-23T22:49:21.889Z,100.00
2023-08-23T22:51:51.073Z,100.00
2023-08-23T22:54:20.387Z,100.00
2023-08-23T22:56:49.692Z,100.00
2023-08-23T22:59:23.549Z,100.00
2023-08-23T23:01:54.577Z,100.00
2023-08-23T23:04:23.909Z,100.00
2023-08-23T23:06:52.961Z,100.00
2023-08-23T23:09:22.307Z,100.00
2023-08-23T23:11:51.664Z,100.00
2023-08-23T23:14:22.248Z,100.00
2023-08-23T23:16:54.694Z,100.00
2023-08-23T23:19:23.917Z,100.00
2023-08-23T23:21:53.267Z,100.00
2023-08-23T23:24:24.718Z,100.00
2023-08-23T23:26:56.167Z,100.00
2023-08-23T23:29:26.515Z,100.00
2023-08-23T23:31:57.253Z,100.00
2023-08-23T23:34:26.717Z,100.00
2023-08-23T23:36:56.130Z,100.00
2023-08-23T23:39:25.402Z,100.00
2023-08-23T23:41:54.887Z,100.00
2023-08-23T23:44:24.260Z,100.00
2023-08-23T23:46:53.926Z,100.00
2023-08-23T23:49:25.330Z,100.00
2023-08-23T23:51:54.967Z,100.00
2023-08-23T23:54:24.558Z,100.00
2023-08-23T23:56:54.129Z,100.00
2023-08-23T23:59:25.688Z,100.00
